Terminal Aerodrome Forecast
Issued by NWS Jackson, KY

Home | Current Version | Previous Version | Text Only | Print | Product List | Glossary On
Versions: 1 2 3 4 5 6 7 8 9 10 11 12 13 14 15 16 17 18 19 20 21
703
FTUS43 KJKL 230521
TAFLOZ
TAF
KLOZ 230521Z 2306/2406 00000KT P6SM BKN200
     FM231500 VRB03KT P6SM VCSH BKN110
     FM231800 16004KT P6SM -SHRA VCTS BKN060CB
     FM232000 16005KT P6SM VCTS BKN060CB=

USA.gov is the U.S. government's official web portal to all federal, state and local government web resources and services.